LFSG/EPL METAR and TAF weather

Enter ICAO airport designator
Station Type Date Time Source
LFSG METAR 2019/10/14 05:30 UTC NOAA

LFSG 140530Z AUTO VRB03KT CAVOK 13/11 Q1014


Station Type Date Time Source
LFSG Decoded METAR 2019/10/14 05:30 UTC NOAA

Station name not available
Oct 14, 2019 - 01:30 AM EDT / 2019.10.14 0530 UTC
Wind: Variable at 3 MPH (3 KT):0
Visibility: greater than 7 mile(s):0
Temperature: 55 F (13 C)
Dew Point: 51 F (11 C)
Relative Humidity: 87%
Pressure (altimeter): 29.94 in. Hg (1014 hPa)
ob: LFSG 140530Z AUTO VRB03KT CAVOK 13/11 Q1014
cycle: 5

Station Type Date Time Source
LFSG TAF UTC NOAA

Error!

Example: see airport list